Time;durP1;ratioP1;P1;durP2;ratioP2;P2;SDS_P1;SDS_P2;PMS_P1;PMS_P2;Temp;Humidity;BMP_temperature;BMP_pressure;BME280_temperature;BME280_humidity;BME280_pressure;Samples;Min_cycle;Max_cycle;Signal;HPM_P1;HPM_P2
2022/12/17 13:06:40;;;;;;;58.13;35.38;;;;;;;0.87;89.82;102411.84;5312962;28;20051;-73
2022/12/17 13:09:14;;;;;;;56.67;36.38;;;;;;;0.85;89.47;102412.03;5312605;28;20378;-73
2022/12/17 13:11:55;;;;;;;58.58;38.15;;;;;;;0.85;89.63;102409.31;5318532;28;20028;-70
2022/12/17 13:14:48;;;;;;;54.78;36.03;;;;;;;0.85;89.01;102403.84;5326635;28;20158;-70
2022/12/17 13:17:36;;;;;;;97.75;60.10;;;;;;;0.87;88.42;102409.13;5305020;28;20048;-73
2022/12/17 13:20:24;;;;;;;57.20;37.50;;;;;;;0.80;89.32;102400.81;5305237;28;20027;-72
2022/12/17 13:23:08;;;;;;;57.35;36.65;;;;;;;0.80;89.50;102409.03;5323428;28;20035;-73
2022/12/17 13:25:40;;;;;;;65.68;39.10;;;;;;;0.56;89.09;102410.13;5325840;28;20118;-74
2022/12/17 13:28:32;;;;;;;55.30;35.22;;;;;;;0.68;89.95;102401.47;5326598;28;20024;-74
2022/12/17 13:31:13;;;;;;;59.03;36.63;;;;;;;0.55;89.58;102393.91;5325236;27;20095;-75
2022/12/17 13:34:11;;;;;;;57.20;38.78;;;;;;;0.64;89.84;102395.53;5326493;28;20024;-75
2022/12/17 13:37:04;;;;;;;59.78;36.08;;;;;;;0.75;89.83;102395.06;5326110;28;20055;-77
2022/12/17 13:39:59;;;;;;;58.95;35.78;;;;;;;0.60;90.28;102392.31;5325025;28;20015;-74
2022/12/17 13:42:33;;;;;;;61.58;37.08;;;;;;;0.54;89.48;102390.34;5326867;28;20028;-74
2022/12/17 13:45:05;;;;;;;58.00;37.00;;;;;;;0.56;89.88;102393.75;5325434;28;20032;-74
2022/12/17 13:47:37;;;;;;;59.28;36.22;;;;;;;0.38;89.69;102391.34;5326260;28;20459;-74
2022/12/17 13:50:24;;;;;;;55.75;35.53;;;;;;;0.55;90.38;102396.63;5325965;28;20034;-74
2022/12/17 13:52:56;;;;;;;61.33;37.60;;;;;;;0.55;89.87;102396.63;5325044;28;20421;-74
2022/12/17 13:55:28;;;;;;;56.67;35.05;;;;;;;0.36;89.68;102396.13;5326431;27;20077;-74
2022/12/17 13:57:59;;;;;;;60.08;37.90;;;;;;;0.29;89.51;102397.91;5322502;28;20135;-74
2022/12/17 14:00:31;;;;;;;58.65;36.13;;;;;;;0.43;90.21;102397.09;5324761;28;20500;-77
2022/12/17 14:03:10;;;;;;;60.53;36.35;;;;;;;0.33;89.44;102407.44;5325510;28;20109;-74
2022/12/17 14:05:43;;;;;;;57.47;34.80;;;;;;;0.31;89.67;102404.03;5325287;28;20066;-74
2022/12/17 14:08:17;;;;;;;59.28;36.58;;;;;;;0.27;89.94;102408.13;5325202;28;20497;-75
2022/12/17 14:12:20;;;;;;;56.50;34.85;;;;;;;0.31;89.74;102400.47;5323965;28;20024;-75
2022/12/17 14:13:46;;;;;;;58.00;33.13;;;;;;;0.19;89.51;102400.03;5323816;28;20039;-74
2022/12/17 14:16:19;;;;;;;53.72;33.50;;;;;;;0.23;89.53;102404.09;5326076;28;20036;-73
2022/12/17 14:18:54;;;;;;;59.33;34.53;;;;;;;0.14;89.38;102402.47;5325967;28;20031;-71
2022/12/17 14:21:27;;;;;;;62.17;38.42;;;;;;;0.26;90.54;102409.19;5324877;28;20027;-73
2022/12/17 14:23:59;;;;;;;66.43;41.15;;;;;;;0.20;90.09;102413.50;5326079;28;20085;-73
2022/12/17 14:26:30;;;;;;;59.63;37.55;;;;;;;0.20;89.82;102415.34;5326199;28;20055;-73
2022/12/17 14:29:11;;;;;;;59.58;34.85;;;;;;;0.20;89.01;102416.22;5324307;28;20018;-73
2022/12/17 14:32:01;;;;;;;56.55;34.70;;;;;;;0.16;89.52;102412.16;5324869;28;20377;-73
2022/12/17 14:34:41;;;;;;;57.25;33.15;;;;;;;0.11;89.35;102417.31;5324424;28;20032;-72
2022/12/17 14:37:23;;;;;;;54.70;32.42;;;;;;;0.08;89.47;102419.56;5325169;28;20030;-72
2022/12/17 14:40:00;;;;;;;51.45;31.33;;;;;;;-0.04;89.57;102422.69;5324841;28;20466;-72
2022/12/17 14:42:35;;;;;;;53.85;30.85;;;;;;;-0.14;89.53;102424.81;5324324;28;20492;-72
2022/12/17 14:45:27;;;;;;;53.53;31.57;;;;;;;0.00;nan;102423.19;5325039;28;20028;-72
2022/12/17 14:48:05;;;;;;;59.33;34.70;;;;;;;-0.09;90.20;102427.00;5324555;28;20051;-72
2022/12/17 14:50:37;;;;;;;55.67;31.35;;;;;;;-0.20;89.16;102433.72;5324703;28;20434;-72
2022/12/17 14:53:26;;;;;;;51.92;31.48;;;;;;;-0.09;90.05;102432.44;5324962;28;20019;-71
2022/12/17 14:55:58;;;;;;;55.20;32.13;;;;;;;-0.12;90.33;102428.22;5323134;28;20024;-72
2022/12/17 14:58:29;;;;;;;58.40;33.13;;;;;;;-0.16;90.69;102431.47;5313896;28;20034;-73
2022/12/17 15:01:10;;;;;;;59.60;33.85;;;;;;;-0.15;90.86;102434.03;5324165;28;20015;-71
2022/12/17 15:03:45;;;;;;;70.60;41.25;;;;;;;-0.19;90.48;102442.75;5323988;28;20031;-73
2022/12/17 15:06:18;;;;;;;56.85;35.00;;;;;;;-0.13;91.30;102450.19;5325070;28;20050;-72
2022/12/17 15:08:51;;;;;;;57.60;34.13;;;;;;;0.17;94.15;102440.28;5325121;28;20039;-68
2022/12/17 15:11:23;;;;;;;59.75;35.95;;;;;;;-0.06;92.41;102443.00;5324563;28;20035;-73
2022/12/17 15:13:54;;;;;;;56.17;33.22;;;;;;;-0.25;90.93;102441.59;5326526;28;20374;-80
2022/12/17 15:16:26;;;;;;;57.08;33.35;;;;;;;-0.06;92.07;102443.00;5323113;28;20027;-70
2022/12/17 15:18:57;;;;;;;59.05;36.10;;;;;;;-0.19;91.22;102451.78;5324288;28;20031;-71
2022/12/17 15:21:28;;;;;;;64.57;33.28;;;;;;;-0.24;90.97;102462.38;5324154;28;20058;-71
2022/12/17 15:24:00;;;;;;;60.97;35.13;;;;;;;-0.34;91.14;102461.72;5321325;28;20119;-71
2022/12/17 15:26:32;;;;;;;54.35;34.55;;;;;;;-0.24;91.41;102468.66;5325443;28;20046;-71
2022/12/17 15:29:04;;;;;;;61.72;36.17;;;;;;;-0.20;92.04;102463.72;5328176;28;20081;-71
2022/12/17 15:31:35;;;;;;;59.63;34.63;;;;;;;-0.29;91.25;102464.78;5327227;28;20035;-69
2022/12/17 15:34:09;;;;;;;57.42;33.78;;;;;;;-0.31;91.18;102472.28;5328256;28;20073;-68
2022/12/17 15:36:41;;;;;;;63.20;38.15;;;;;;;-0.40;91.02;102466.03;5326889;28;20390;-69
2022/12/17 15:39:12;;;;;;;58.05;34.80;;;;;;;-0.25;92.34;102471.59;5327016;28;20035;-69
2022/12/17 15:44:34;;;;;;;63.40;37.42;;;;;;;-0.29;92.34;102476.53;5327182;28;20035;-68
2022/12/17 15:47:06;;;;;;;64.75;36.42;;;;;;;-0.42;91.29;102475.41;5325094;28;20035;-69
2022/12/17 15:49:37;;;;;;;63.60;35.25;;;;;;;-0.29;92.45;102478.41;5325206;28;20118;-66
2022/12/17 15:52:09;;;;;;;62.63;37.42;;;;;;;-0.16;92.96;102475.94;5327306;28;20150;-68
2022/12/17 15:54:41;;;;;;;72.40;40.95;;;;;;;-0.22;92.06;102482.13;5327673;28;20467;-68
2022/12/17 15:57:12;;;;;;;65.18;38.20;;;;;;;0.02;92.87;102483.84;5326523;28;20057;-67
2022/12/17 15:59:44;;;;;;;71.95;39.67;;;;;;;-0.06;91.63;102490.22;5327064;28;20110;-68
2022/12/17 16:02:15;;;;;;;64.90;38.22;;;;;;;-0.05;91.96;102494.66;5326890;28;20029;-67
2022/12/17 16:04:46;;;;;;;65.55;37.45;;;;;;;0.02;92.23;102491.19;5327627;28;20023;-67
2022/12/17 16:07:18;;;;;;;52.03;33.28;;;;;;;-0.07;90.03;102504.88;5326752;28;20036;-67
2022/12/17 16:09:49;;;;;;;55.85;33.15;;;;;;;-0.03;90.15;102503.47;5327386;28;20020;-68
2022/12/17 16:12:21;;;;;;;54.78;33.80;;;;;;;-0.08;90.31;102497.72;5316809;28;20447;-68
2022/12/17 16:14:52;;;;;;;59.38;34.58;;;;;;;-0.24;89.98;102495.09;5327000;28;20031;-68
2022/12/17 16:17:23;;;;;;;57.45;33.83;;;;;;;-0.20;90.12;102490.13;5326636;28;20107;-67
2022/12/17 16:19:54;;;;;;;62.03;35.80;;;;;;;-0.23;89.87;102483.13;5327245;28;20389;-66
2022/12/17 16:22:26;;;;;;;68.00;37.25;;;;;;;-0.32;89.67;102486.94;5327104;28;20122;-67
2022/12/17 16:24:58;;;;;;;67.95;39.63;;;;;;;-0.30;90.68;102490.34;5327690;28;20042;-66
2022/12/17 16:27:29;;;;;;;66.95;40.35;;;;;;;-0.36;90.28;102485.59;5326686;28;20077;-66
2022/12/17 16:30:02;;;;;;;65.72;37.25;;;;;;;-0.22;90.60;102488.44;5326795;27;20085;-67
2022/12/17 16:32:33;;;;;;;59.45;36.38;;;;;;;-0.25;89.82;102490.66;5326742;28;20338;-66
2022/12/17 16:35:05;;;;;;;62.83;35.42;;;;;;;-0.32;89.62;102493.25;5326498;28;20028;-67
